sensor_id;sensor_type;location;lat;lon;timestamp;pressure;altitude;pressure_sealevel;temperature;humidity
65553;BME280;52465;51.560;14.368;2023-02-19T00:01:08;100108.78;;;10.16;70.78
65553;BME280;52465;51.560;14.368;2023-02-19T00:03:35;100085.84;;;10.10;70.42
65553;BME280;52465;51.560;14.368;2023-02-19T00:06:20;100100.06;;;10.15;70.82
65553;BME280;52465;51.560;14.368;2023-02-19T00:08:45;100076.50;;;9.99;70.64
65553;BME280;52465;51.560;14.368;2023-02-19T00:11:13;100046.16;;;9.80;70.80
65553;BME280;52465;51.560;14.368;2023-02-19T00:13:42;100087.78;;;10.07;70.85
65553;BME280;52465;51.560;14.368;2023-02-19T00:16:14;100089.75;;;10.05;70.78
65553;BME280;52465;51.560;14.368;2023-02-19T00:18:40;100096.81;;;10.13;70.82
65553;BME280;52465;51.560;14.368;2023-02-19T00:21:06;100095.19;;;10.12;70.94
65553;BME280;52465;51.560;14.368;2023-02-19T00:23:32;100079.75;;;10.01;70.77
65553;BME280;52465;51.560;14.368;2023-02-19T00:26:05;100051.56;;;9.78;70.83
65553;BME280;52465;51.560;14.368;2023-02-19T00:28:31;100086.63;;;10.02;70.96
65553;BME280;52465;51.560;14.368;2023-02-19T00:31:07;100101.53;;;10.10;71.05
65553;BME280;52465;51.560;14.368;2023-02-19T00:33:33;100107.59;;;10.10;70.74
65553;BME280;52465;51.560;14.368;2023-02-19T00:36:01;100095.66;;;10.07;70.55
65553;BME280;52465;51.560;14.368;2023-02-19T00:38:27;100095.28;;;10.02;70.65
65553;BME280;52465;51.560;14.368;2023-02-19T00:40:53;100068.44;;;9.92;70.72
65553;BME280;52465;51.560;14.368;2023-02-19T00:43:18;100037.66;;;9.78;70.71
65553;BME280;52465;51.560;14.368;2023-02-19T00:45:44;100048.34;;;9.93;70.60
65553;BME280;52465;51.560;14.368;2023-02-19T00:48:09;100069.66;;;10.06;70.65
65553;BME280;52465;51.560;14.368;2023-02-19T00:50:35;100031.47;;;9.79;70.79
65553;BME280;52465;51.560;14.368;2023-02-19T00:53:00;100073.09;;;10.06;70.64
65553;BME280;52465;51.560;14.368;2023-02-19T00:55:25;100082.06;;;10.04;70.83
65553;BME280;52465;51.560;14.368;2023-02-19T00:57:51;100048.63;;;9.81;70.71
65553;BME280;52465;51.560;14.368;2023-02-19T01:00:16;100019.47;;;9.68;70.85
65553;BME280;52465;51.560;14.368;2023-02-19T01:02:42;100069.25;;;9.93;70.76
65553;BME280;52465;51.560;14.368;2023-02-19T01:05:07;100081.41;;;10.02;70.78
65553;BME280;52465;51.560;14.368;2023-02-19T01:07:35;100078.44;;;9.97;70.63
65553;BME280;52465;51.560;14.368;2023-02-19T01:10:00;100079.94;;;9.99;70.73
65553;BME280;52465;51.560;14.368;2023-02-19T01:12:26;100076.63;;;9.97;70.64
65553;BME280;52465;51.560;14.368;2023-02-19T01:14:52;100068.78;;;9.97;70.77
65553;BME280;52465;51.560;14.368;2023-02-19T01:17:19;99995.31;;;9.66;70.40
65553;BME280;52465;51.560;14.368;2023-02-19T01:19:44;100059.97;;;9.98;70.71
65553;BME280;52465;51.560;14.368;2023-02-19T01:22:28;100049.00;;;9.95;70.91
65553;BME280;52465;51.560;14.368;2023-02-19T01:24:53;100033.78;;;9.82;71.00
65553;BME280;52465;51.560;14.368;2023-02-19T01:27:19;100064.06;;;10.01;70.76
65553;BME280;52465;51.560;14.368;2023-02-19T01:29:44;100045.06;;;9.91;70.58
65553;BME280;52465;51.560;14.368;2023-02-19T01:32:10;100005.44;;;9.69;70.60
65553;BME280;52465;51.560;14.368;2023-02-19T01:34:35;100024.31;;;9.89;70.67
65553;BME280;52465;51.560;14.368;2023-02-19T01:37:01;100033.97;;;9.97;70.75
65553;BME280;52465;51.560;14.368;2023-02-19T01:39:27;100033.00;;;9.98;70.54
65553;BME280;52465;51.560;14.368;2023-02-19T01:41:52;100030.72;;;9.95;70.65
65553;BME280;52465;51.560;14.368;2023-02-19T01:46:47;100019.91;;;9.98;70.87
65553;BME280;52465;51.560;14.368;2023-02-19T01:49:16;100012.25;;;9.96;70.43
65553;BME280;52465;51.560;14.368;2023-02-19T01:54:43;99994.09;;;9.95;70.52
65553;BME280;52465;51.560;14.368;2023-02-19T01:57:14;99963.47;;;9.71;70.50
65553;BME280;52465;51.560;14.368;2023-02-19T01:59:42;99993.75;;;9.90;70.47
65553;BME280;52465;51.560;14.368;2023-02-19T02:02:08;99972.16;;;9.79;70.84
65553;BME280;52465;51.560;14.368;2023-02-19T02:04:33;99961.19;;;9.76;70.52
65553;BME280;52465;51.560;14.368;2023-02-19T02:07:01;99982.97;;;9.93;70.72
65553;BME280;52465;51.560;14.368;2023-02-19T02:09:28;99974.81;;;9.88;70.59
65553;BME280;52465;51.560;14.368;2023-02-19T02:12:14;99920.44;;;9.57;70.64
65553;BME280;52465;51.560;14.368;2023-02-19T02:14:42;99948.28;;;9.74;70.51
65553;BME280;52465;51.560;14.368;2023-02-19T02:22:33;99952.03;;;9.80;70.50
65553;BME280;52465;51.560;14.368;2023-02-19T02:28:11;99967.59;;;9.90;70.14
65553;BME280;52465;51.560;14.368;2023-02-19T02:30:53;99972.84;;;9.90;70.85
65553;BME280;52465;51.560;14.368;2023-02-19T02:33:31;99967.59;;;9.90;70.56
65553;BME280;52465;51.560;14.368;2023-02-19T02:36:04;99964.19;;;9.89;70.52
65553;BME280;52465;51.560;14.368;2023-02-19T02:38:35;99960.72;;;9.80;70.34
65553;BME280;52465;51.560;14.368;2023-02-19T02:41:02;99929.63;;;9.61;70.43
65553;BME280;52465;51.560;14.368;2023-02-19T02:43:28;99965.81;;;9.90;70.33
65553;BME280;52465;51.560;14.368;2023-02-19T02:45:53;99944.72;;;9.84;70.60
65553;BME280;52465;51.560;14.368;2023-02-19T02:53:47;99929.50;;;9.79;70.47
65553;BME280;52465;51.560;14.368;2023-02-19T02:56:34;99921.34;;;9.82;70.42
65553;BME280;52465;51.560;14.368;2023-02-19T02:59:01;99922.81;;;9.85;70.67
65553;BME280;52465;51.560;14.368;2023-02-19T03:01:37;99924.28;;;9.87;70.39
65553;BME280;52465;51.560;14.368;2023-02-19T03:04:32;99875.03;;;9.58;70.42
65553;BME280;52465;51.560;14.368;2023-02-19T03:07:30;99908.41;;;9.80;70.65
65553;BME280;52465;51.560;14.368;2023-02-19T03:10:01;99909.56;;;9.86;70.14
65553;BME280;52465;51.560;14.368;2023-02-19T03:12:29;99911.03;;;9.80;70.67
65553;BME280;52465;51.560;14.368;2023-02-19T03:15:15;99914.00;;;9.86;70.30
65553;BME280;52465;51.560;14.368;2023-02-19T03:18:02;99907.94;;;9.85;70.67
65553;BME280;52465;51.560;14.368;2023-02-19T03:20:50;99909.75;;;9.85;70.24
65553;BME280;52465;51.560;14.368;2023-02-19T03:23:18;99901.06;;;9.76;70.40
65553;BME280;52465;51.560;14.368;2023-02-19T03:25:45;99895.84;;;9.84;70.72
65553;BME280;52465;51.560;14.368;2023-02-19T03:28:32;99897.66;;;9.84;70.81
65553;BME280;52465;51.560;14.368;2023-02-19T03:31:20;99894.22;;;9.83;70.49
65553;BME280;52465;51.560;14.368;2023-02-19T03:33:52;99854.13;;;9.58;70.58
65553;BME280;52465;51.560;14.368;2023-02-19T03:36:19;99868.22;;;9.73;70.54
65553;BME280;52465;51.560;14.368;2023-02-19T03:42:01;99878.38;;;9.76;70.55
65553;BME280;52465;51.560;14.368;2023-02-19T03:44:47;99885.72;;;9.81;70.29
65553;BME280;52465;51.560;14.368;2023-02-19T03:47:24;99866.75;;;9.71;70.47
65553;BME280;52465;51.560;14.368;2023-02-19T03:50:05;99883.09;;;9.81;70.26
65553;BME280;52465;51.560;14.368;2023-02-19T03:56:07;99897.97;;;9.80;70.63
65553;BME280;52465;51.560;14.368;2023-02-19T04:01:49;99888.66;;;9.78;70.19
65553;BME280;52465;51.560;14.368;2023-02-19T04:04:26;99881.63;;;9.78;70.31
65553;BME280;52465;51.560;14.368;2023-02-19T04:06:54;99877.53;;;9.76;70.73
65553;BME280;52465;51.560;14.368;2023-02-19T04:09:22;99877.88;;;9.73;70.56
65553;BME280;52465;51.560;14.368;2023-02-19T04:11:49;99876.41;;;9.78;70.60
65553;BME280;52465;51.560;14.368;2023-02-19T04:16:48;99868.72;;;9.77;70.85
65553;BME280;52465;51.560;14.368;2023-02-19T04:19:18;99839.16;;;9.76;70.46
65553;BME280;52465;51.560;14.368;2023-02-19T04:21:47;99810.34;;;9.52;70.25
65553;BME280;52465;51.560;14.368;2023-02-19T04:24:19;99849.41;;;9.70;70.40
65553;BME280;52465;51.560;14.368;2023-02-19T04:26:46;99855.66;;;9.77;70.30
65553;BME280;52465;51.560;14.368;2023-02-19T04:29:11;99861.19;;;9.74;70.62
65553;BME280;52465;51.560;14.368;2023-02-19T04:31:37;99878.38;;;9.76;70.06
65553;BME280;52465;51.560;14.368;2023-02-19T04:34:03;99856.44;;;9.61;70.31
65553;BME280;52465;51.560;14.368;2023-02-19T04:36:30;99810.50;;;9.42;70.35
65553;BME280;52465;51.560;14.368;2023-02-19T04:38:56;99860.56;;;9.72;70.71
65553;BME280;52465;51.560;14.368;2023-02-19T04:41:21;99837.00;;;9.56;70.39
65553;BME280;52465;51.560;14.368;2023-02-19T04:43:47;99859.88;;;9.62;70.52
65553;BME280;52465;51.560;14.368;2023-02-19T04:46:12;99874.44;;;9.72;70.64
65553;BME280;52465;51.560;14.368;2023-02-19T04:48:37;99882.91;;;9.74;70.73
65553;BME280;52465;51.560;14.368;2023-02-19T04:51:05;99878.16;;;9.70;70.27
65553;BME280;52465;51.560;14.368;2023-02-19T04:53:31;99869.38;;;9.71;70.55
65553;BME280;52465;51.560;14.368;2023-02-19T04:55:56;99843.19;;;9.54;70.54
65553;BME280;52465;51.560;14.368;2023-02-19T04:58:22;99870.84;;;9.73;70.20
65553;BME280;52465;51.560;14.368;2023-02-19T05:00:51;99868.53;;;9.70;70.58
65553;BME280;52465;51.560;14.368;2023-02-19T05:03:16;99865.44;;;9.67;70.50
65553;BME280;52465;51.560;14.368;2023-02-19T05:05:42;99848.78;;;9.60;70.59
65553;BME280;52465;51.560;14.368;2023-02-19T05:08:07;99853.00;;;9.61;70.36
65553;BME280;52465;51.560;14.368;2023-02-19T05:10:33;99854.00;;;9.60;70.10
65553;BME280;52465;51.560;14.368;2023-02-19T05:12:59;99872.81;;;9.71;70.60
65553;BME280;52465;51.560;14.368;2023-02-19T05:15:24;99869.38;;;9.71;70.23
65553;BME280;52465;51.560;14.368;2023-02-19T05:17:50;99849.59;;;9.60;70.37
65553;BME280;52465;51.560;14.368;2023-02-19T05:20:15;99859.34;;;9.58;70.50
65553;BME280;52465;51.560;14.368;2023-02-19T05:22:41;99877.22;;;9.71;70.47
65553;BME280;52465;51.560;14.368;2023-02-19T05:25:06;99876.53;;;9.69;70.42
65553;BME280;52465;51.560;14.368;2023-02-19T05:27:31;99878.16;;;9.70;70.27
65553;BME280;52465;51.560;14.368;2023-02-19T05:29:57;99866.56;;;9.56;70.74
65553;BME280;52465;51.560;14.368;2023-02-19T05:32:22;99866.22;;;9.51;70.53
65553;BME280;52465;51.560;14.368;2023-02-19T05:34:49;99877.34;;;9.69;70.58
65553;BME280;52465;51.560;14.368;2023-02-19T05:37:15;99881.09;;;9.59;70.50
65553;BME280;52465;51.560;14.368;2023-02-19T05:39:40;99849.66;;;9.34;70.52
65553;BME280;52465;51.560;14.368;2023-02-19T05:42:06;99888.44;;;9.55;70.20
65553;BME280;52465;51.560;14.368;2023-02-19T05:44:31;99844.59;;;9.33;70.30
65553;BME280;52465;51.560;14.368;2023-02-19T05:46:57;99911.50;;;9.68;70.79
65553;BME280;52465;51.560;14.368;2023-02-19T05:49:22;99910.19;;;9.64;70.53
65553;BME280;52465;51.560;14.368;2023-02-19T05:51:50;99909.19;;;9.65;70.46
65553;BME280;52465;51.560;14.368;2023-02-19T05:54:16;99919.81;;;9.63;70.33
65553;BME280;52465;51.560;14.368;2023-02-19T05:56:41;99892.16;;;9.44;70.55
65553;BME280;52465;51.560;14.368;2023-02-19T05:59:14;99935.50;;;9.63;70.60
65553;BME280;52465;51.560;14.368;2023-02-19T06:02:05;99925.03;;;9.63;70.22
65553;BME280;52465;51.560;14.368;2023-02-19T06:04:31;99917.53;;;9.60;70.46
65553;BME280;52465;51.560;14.368;2023-02-19T06:07:00;99928.47;;;9.56;70.14
65553;BME280;52465;51.560;14.368;2023-02-19T06:09:25;99886.06;;;9.27;70.12
65553;BME280;52465;51.560;14.368;2023-02-19T06:11:51;99926.28;;;9.43;70.38
65553;BME280;52465;51.560;14.368;2023-02-19T06:14:16;99950.34;;;9.54;70.36
65553;BME280;52465;51.560;14.368;2023-02-19T06:16:42;99963.91;;;9.58;70.34
65553;BME280;52465;51.560;14.368;2023-02-19T06:19:08;99937.03;;;9.40;70.51
65553;BME280;52465;51.560;14.368;2023-02-19T06:21:33;99958.84;;;9.57;70.32
65553;BME280;52465;51.560;14.368;2023-02-19T06:24:04;99951.28;;;9.45;70.23
65553;BME280;52465;51.560;14.368;2023-02-19T06:26:30;99968.78;;;9.53;70.68
65553;BME280;52465;51.560;14.368;2023-02-19T06:28:55;99957.31;;;9.46;70.48
65553;BME280;52465;51.560;14.368;2023-02-19T06:31:21;99992.63;;;9.58;70.24
65553;BME280;52465;51.560;14.368;2023-02-19T06:33:47;99983.16;;;9.57;70.57
65553;BME280;52465;51.560;14.368;2023-02-19T06:36:16;100004.06;;;9.57;70.12
65553;BME280;52465;51.560;14.368;2023-02-19T06:38:42;99987.97;;;9.36;70.11
65553;BME280;52465;51.560;14.368;2023-02-19T06:41:11;99999.28;;;9.44;70.11
65553;BME280;52465;51.560;14.368;2023-02-19T06:43:37;100014.19;;;9.52;70.70
65553;BME280;52465;51.560;14.368;2023-02-19T06:46:04;100011.06;;;9.48;70.37
65553;BME280;52465;51.560;14.368;2023-02-19T06:48:31;100022.63;;;9.46;70.36
65553;BME280;52465;51.560;14.368;2023-02-19T06:50:57;100027.06;;;9.53;70.21
65553;BME280;52465;51.560;14.368;2023-02-19T06:53:22;99993.81;;;9.30;70.28
65553;BME280;52465;51.560;14.368;2023-02-19T06:56:26;100022.63;;;9.46;70.05
65553;BME280;52465;51.560;14.368;2023-02-19T06:58:57;99984.75;;;9.16;70.17
65553;BME280;52465;51.560;14.368;2023-02-19T07:01:29;100047.31;;;9.51;70.55
65553;BME280;52465;51.560;14.368;2023-02-19T07:03:55;100031.75;;;9.42;70.49
65553;BME280;52465;51.560;14.368;2023-02-19T07:06:22;100005.53;;;9.25;70.46
65553;BME280;52465;51.560;14.368;2023-02-19T07:08:50;100055.16;;;9.51;70.30
65553;BME280;52465;51.560;14.368;2023-02-19T07:11:16;100052.34;;;9.45;69.93
65553;BME280;52465;51.560;14.368;2023-02-19T07:13:43;100056.09;;;9.42;70.30
65553;BME280;52465;51.560;14.368;2023-02-19T07:16:09;100052.16;;;9.38;69.91
65553;BME280;52465;51.560;14.368;2023-02-19T07:18:36;100003.22;;;8.96;70.17
65553;BME280;52465;51.560;14.368;2023-02-19T07:21:06;100073.88;;;9.39;70.27
65553;BME280;52465;51.560;14.368;2023-02-19T07:23:32;100087.59;;;9.41;70.39
65553;BME280;52465;51.560;14.368;2023-02-19T07:25:58;100103.97;;;9.43;70.44
65553;BME280;52465;51.560;14.368;2023-02-19T07:28:24;100089.34;;;9.32;70.26
65553;BME280;52465;51.560;14.368;2023-02-19T07:30:49;100110.28;;;9.40;70.66
65553;BME280;52465;51.560;14.368;2023-02-19T07:33:16;100100.81;;;9.39;70.25
65553;BME280;52465;51.560;14.368;2023-02-19T07:35:48;100122.09;;;9.44;70.54
65553;BME280;52465;51.560;14.368;2023-02-19T07:38:22;100131.56;;;9.45;70.01
65553;BME280;52465;51.560;14.368;2023-02-19T07:40:56;100143.81;;;9.45;69.80
65553;BME280;52465;51.560;14.368;2023-02-19T07:43:23;100153.28;;;9.46;70.02
65553;BME280;52465;51.560;14.368;2023-02-19T07:45:48;100159.66;;;9.43;70.18
65553;BME280;52465;51.560;14.368;2023-02-19T07:48:14;100172.56;;;9.45;70.20
65553;BME280;52465;51.560;14.368;2023-02-19T07:50:39;100171.91;;;9.43;70.14
65553;BME280;52465;51.560;14.368;2023-02-19T07:53:06;100164.63;;;9.37;70.34
65553;BME280;52465;51.560;14.368;2023-02-19T07:55:32;100175.94;;;9.37;70.08
65553;BME280;52465;51.560;14.368;2023-02-19T07:57:58;100186.44;;;9.45;70.10
65553;BME280;52465;51.560;14.368;2023-02-19T08:00:24;100186.59;;;9.44;70.22
65553;BME280;52465;51.560;14.368;2023-02-19T08:02:53;100189.94;;;9.36;69.87
65553;BME280;52465;51.560;14.368;2023-02-19T08:05:30;100190.25;;;9.33;69.90
65553;BME280;52465;51.560;14.368;2023-02-19T08:07:58;100201.59;;;9.42;70.07
65553;BME280;52465;51.560;14.368;2023-02-19T08:10:25;100203.25;;;9.43;69.96
65553;BME280;52465;51.560;14.368;2023-02-19T08:13:14;100178.31;;;9.31;70.05
65553;BME280;52465;51.560;14.368;2023-02-19T08:15:46;100216.31;;;9.43;70.04
65553;BME280;52465;51.560;14.368;2023-02-19T08:18:13;100208.59;;;9.41;70.29
65553;BME280;52465;51.560;14.368;2023-02-19T08:20:40;100225.91;;;9.42;69.95
65553;BME280;52465;51.560;14.368;2023-02-19T08:23:06;100243.38;;;9.42;69.77
65553;BME280;52465;51.560;14.368;2023-02-19T08:25:32;100214.00;;;9.22;70.17
65553;BME280;52465;51.560;14.368;2023-02-19T08:27:58;100231.75;;;9.36;70.43
65553;BME280;52465;51.560;14.368;2023-02-19T08:30:26;100201.00;;;9.12;69.94
65553;BME280;52465;51.560;14.368;2023-02-19T08:32:54;100237.94;;;9.35;70.01
65553;BME280;52465;51.560;14.368;2023-02-19T08:35:20;100230.03;;;9.27;70.07
65553;BME280;52465;51.560;14.368;2023-02-19T08:37:48;100255.63;;;9.41;70.14
65553;BME280;52465;51.560;14.368;2023-02-19T08:40:14;100261.03;;;9.40;69.93
65553;BME280;52465;51.560;14.368;2023-02-19T08:42:39;100221.72;;;9.14;70.07
65553;BME280;52465;51.560;14.368;2023-02-19T08:45:08;100230.53;;;9.13;70.25
65553;BME280;52465;51.560;14.368;2023-02-19T08:47:34;100271.75;;;9.37;69.88
65553;BME280;52465;51.560;14.368;2023-02-19T08:50:11;100255.25;;;9.18;70.19
65553;BME280;52465;51.560;14.368;2023-02-19T08:52:37;100268.41;;;9.26;69.91
65553;BME280;52465;51.560;14.368;2023-02-19T08:55:04;100294.97;;;9.40;70.42
65553;BME280;52465;51.560;14.368;2023-02-19T08:57:29;100304.47;;;9.41;70.22
65553;BME280;52465;51.560;14.368;2023-02-19T08:59:55;100262.69;;;9.13;69.69
65553;BME280;52465;51.560;14.368;2023-02-19T09:02:22;100307.97;;;9.32;69.87
65553;BME280;52465;51.560;14.368;2023-02-19T09:04:48;100288.00;;;9.13;70.23
65553;BME280;52465;51.560;14.368;2023-02-19T09:07:14;100313.47;;;9.28;70.19
65553;BME280;52465;51.560;14.368;2023-02-19T09:09:40;100329.09;;;9.38;69.80
65553;BME280;52465;51.560;14.368;2023-02-19T09:12:10;100303.91;;;9.19;69.75
65553;BME280;52465;51.560;14.368;2023-02-19T09:14:37;100323.94;;;9.28;70.16
65553;BME280;52465;51.560;14.368;2023-02-19T09:17:03;100300.25;;;9.12;69.90
65553;BME280;52465;51.560;14.368;2023-02-19T09:19:29;100343.41;;;9.34;69.97
65553;BME280;52465;51.560;14.368;2023-02-19T09:21:55;100341.19;;;9.39;69.73
65553;BME280;52465;51.560;14.368;2023-02-19T09:24:39;100344.78;;;9.38;70.08
65553;BME280;52465;51.560;14.368;2023-02-19T09:27:04;100355.06;;;9.40;69.86
65553;BME280;52465;51.560;14.368;2023-02-19T09:29:30;100354.25;;;9.39;69.94
65553;BME280;52465;51.560;14.368;2023-02-19T09:31:56;100358.56;;;9.31;70.09
65553;BME280;52465;51.560;14.368;2023-02-19T09:34:23;100378.75;;;9.38;70.03
65553;BME280;52465;51.560;14.368;2023-02-19T09:36:48;100365.28;;;9.33;69.93
65553;BME280;52465;51.560;14.368;2023-02-19T09:39:14;100367.91;;;9.33;70.04
65553;BME280;52465;51.560;14.368;2023-02-19T09:41:48;100377.09;;;9.37;69.73
65553;BME280;52465;51.560;14.368;2023-02-19T09:44:34;100381.38;;;9.38;70.04
65553;BME280;52465;51.560;14.368;2023-02-19T09:47:01;100399.78;;;9.37;70.14
65553;BME280;52465;51.560;14.368;2023-02-19T09:49:36;100384.84;;;9.29;69.85
65553;BME280;52465;51.560;14.368;2023-02-19T09:52:33;100379.75;;;9.27;69.85
65553;BME280;52465;51.560;14.368;2023-02-19T09:58:02;100394.19;;;9.32;69.60
65553;BME280;52465;51.560;14.368;2023-02-19T10:00:33;100409.28;;;9.38;69.82
65553;BME280;52465;51.560;14.368;2023-02-19T10:03:03;100407.25;;;9.32;69.90
65553;BME280;52465;51.560;14.368;2023-02-19T10:05:29;100412.84;;;9.37;69.63
65553;BME280;52465;51.560;14.368;2023-02-19T10:07:56;100407.91;;;9.34;69.60
65553;BME280;52465;51.560;14.368;2023-02-19T10:10:31;100411.75;;;9.39;69.71
65553;BME280;52465;51.560;14.368;2023-02-19T10:13:17;100426.59;;;9.39;70.02
65553;BME280;52465;51.560;14.368;2023-02-19T10:15:46;100431.81;;;9.39;69.68
65553;BME280;52465;51.560;14.368;2023-02-19T10:18:15;100433.63;;;9.38;69.86
65553;BME280;52465;51.560;14.368;2023-02-19T10:20:41;100421.81;;;9.34;69.39
65553;BME280;52465;51.560;14.368;2023-02-19T10:23:12;100440.19;;;9.42;69.66
65553;BME280;52465;51.560;14.368;2023-02-19T10:25:43;100433.84;;;9.45;69.77
65553;BME280;52465;51.560;14.368;2023-02-19T10:28:14;100437.97;;;9.47;69.61
65553;BME280;52465;51.560;14.368;2023-02-19T10:30:40;100443.72;;;9.51;69.20
65553;BME280;52465;51.560;14.368;2023-02-19T10:33:13;100446.44;;;9.59;69.31
65553;BME280;52465;51.560;14.368;2023-02-19T10:36:06;100441.06;;;9.61;69.19
65553;BME280;52465;51.560;14.368;2023-02-19T10:38:45;100453.41;;;9.68;69.15
65553;BME280;52465;51.560;14.368;2023-02-19T10:41:17;100448.03;;;9.70;69.22
65553;BME280;52465;51.560;14.368;2023-02-19T10:44:04;100462.44;;;9.74;69.30
65553;BME280;52465;51.560;14.368;2023-02-19T10:46:34;100465.88;;;9.74;69.15
65553;BME280;52465;51.560;14.368;2023-02-19T10:49:05;100460.97;;;9.71;69.16
65553;BME280;52465;51.560;14.368;2023-02-19T10:51:37;100477.13;;;9.85;68.96
65553;BME280;52465;51.560;14.368;2023-02-19T10:54:05;100478.75;;;9.86;69.00
65553;BME280;52465;51.560;14.368;2023-02-19T10:56:31;100475.47;;;9.84;69.12
65553;BME280;52465;51.560;14.368;2023-02-19T11:01:57;100496.34;;;9.93;68.70
65553;BME280;52465;51.560;14.368;2023-02-19T11:04:30;100492.06;;;9.92;68.57
65553;BME280;52465;51.560;14.368;2023-02-19T11:07:15;100505.41;;;9.99;68.81
65553;BME280;52465;51.560;14.368;2023-02-19T11:09:47;100509.44;;;9.93;68.40
65553;BME280;52465;51.560;14.368;2023-02-19T11:12:22;100501.50;;;10.03;68.58
65553;BME280;52465;51.560;14.368;2023-02-19T11:14:49;100483.72;;;9.89;68.63
65553;BME280;52465;51.560;14.368;2023-02-19T11:17:22;100495.22;;;9.96;68.54
65553;BME280;52465;51.560;14.368;2023-02-19T11:19:51;100482.06;;;9.88;68.35
65553;BME280;52465;51.560;14.368;2023-02-19T11:22:18;100518.78;;;10.14;68.50
65553;BME280;52465;51.560;14.368;2023-02-19T11:24:49;100498.50;;;9.98;68.41
65553;BME280;52465;51.560;14.368;2023-02-19T11:27:18;100535.19;;;10.16;68.65
65553;BME280;52465;51.560;14.368;2023-02-19T11:29:45;100476.59;;;9.81;68.37
65553;BME280;52465;51.560;14.368;2023-02-19T11:34:45;100540.97;;;10.10;68.38
65553;BME280;52465;51.560;14.368;2023-02-19T11:37:19;100536.06;;;10.06;68.29
65553;BME280;52465;51.560;14.368;2023-02-19T11:39:49;100518.09;;;9.94;68.48
65553;BME280;52465;51.560;14.368;2023-02-19T11:42:43;100545.53;;;10.07;68.13
65553;BME280;52465;51.560;14.368;2023-02-19T11:53:23;100555.94;;;9.99;68.00
65553;BME280;52465;51.560;14.368;2023-02-19T11:56:17;100556.03;;;9.98;68.33
65553;BME280;52465;51.560;14.368;2023-02-19T11:59:02;100559.78;;;9.95;68.40
65553;BME280;52465;51.560;14.368;2023-02-19T12:13:25;100581.44;;;9.88;68.18
65553;BME280;52465;51.560;14.368;2023-02-19T12:18:35;100571.28;;;9.75;68.20
65553;BME280;52465;51.560;14.368;2023-02-19T12:24:01;100589.00;;;9.81;68.38
65553;BME280;52465;51.560;14.368;2023-02-19T12:27:00;100565.97;;;9.67;68.02
65553;BME280;52465;51.560;14.368;2023-02-19T12:29:35;100589.16;;;9.79;68.05
65553;BME280;52465;51.560;14.368;2023-02-19T12:32:52;100584.09;;;9.78;68.13
65553;BME280;52465;51.560;14.368;2023-02-19T12:35:40;100588.91;;;9.73;68.39
65553;BME280;52465;51.560;14.368;2023-02-19T12:38:21;100581.75;;;9.75;68.01
65553;BME280;52465;51.560;14.368;2023-02-19T12:41:13;100594.00;;;9.74;68.30
65553;BME280;52465;51.560;14.368;2023-02-19T12:43:50;100570.22;;;9.68;68.52
65553;BME280;52465;51.560;14.368;2023-02-19T12:46:24;100565.81;;;9.68;67.97
65553;BME280;52465;51.560;14.368;2023-02-19T12:51:52;100567.34;;;9.71;68.29
65553;BME280;52465;51.560;14.368;2023-02-19T12:54:29;100573.78;;;9.76;68.15
65553;BME280;52465;51.560;14.368;2023-02-19T12:57:03;100554.81;;;9.65;68.34
65553;BME280;52465;51.560;14.368;2023-02-19T12:59:35;100570.19;;;9.77;68.05
65553;BME280;52465;51.560;14.368;2023-02-19T13:02:05;100570.03;;;9.79;67.95
65553;BME280;52465;51.560;14.368;2023-02-19T13:07:08;100542.50;;;9.47;67.92
65553;BME280;52465;51.560;14.368;2023-02-19T13:09:44;100592.59;;;9.80;68.33
65553;BME280;52465;51.560;14.368;2023-02-19T13:12:19;100593.41;;;9.80;67.91
65553;BME280;52465;51.560;14.368;2023-02-19T13:15:16;100590.00;;;9.80;67.84
65553;BME280;52465;51.560;14.368;2023-02-19T13:17:51;100575.06;;;9.63;68.15
65553;BME280;52465;51.560;14.368;2023-02-19T13:23:06;100616.94;;;9.80;67.91
65553;BME280;52465;51.560;14.368;2023-02-19T13:26:10;100615.63;;;9.76;68.01
65553;BME280;52465;51.560;14.368;2023-02-19T13:37:10;100606.41;;;9.72;67.88
65553;BME280;52465;51.560;14.368;2023-02-19T13:39:36;100575.63;;;9.57;67.78
65553;BME280;52465;51.560;14.368;2023-02-19T13:42:35;100597.19;;;9.68;67.52
65553;BME280;52465;51.560;14.368;2023-02-19T13:45:02;100591.41;;;9.65;67.52
65553;BME280;52465;51.560;14.368;2023-02-19T13:47:57;100625.50;;;9.83;67.68
65553;BME280;52465;51.560;14.368;2023-02-19T13:50:26;100610.81;;;9.72;67.78
65553;BME280;52465;51.560;14.368;2023-02-19T13:52:56;100633.19;;;9.84;67.21
65553;BME280;52465;51.560;14.368;2023-02-19T14:00:56;100627.16;;;9.74;67.27
65553;BME280;52465;51.560;14.368;2023-02-19T14:03:44;100639.66;;;9.80;67.67
65553;BME280;52465;51.560;14.368;2023-02-19T14:06:10;100634.44;;;9.80;67.64
65553;BME280;52465;51.560;14.368;2023-02-19T14:08:53;100641.19;;;9.83;67.72
65553;BME280;52465;51.560;14.368;2023-02-19T14:14:39;100645.59;;;9.82;67.30
65553;BME280;52465;51.560;14.368;2023-02-19T14:19:53;100646.53;;;9.81;67.60
65553;BME280;52465;51.560;14.368;2023-02-19T14:25:25;100653.72;;;9.79;67.22
65553;BME280;52465;51.560;14.368;2023-02-19T14:27:53;100659.63;;;9.81;67.48
65553;BME280;52465;51.560;14.368;2023-02-19T14:30:21;100657.16;;;9.79;67.35
65553;BME280;52465;51.560;14.368;2023-02-19T14:32:48;100660.06;;;9.76;67.57
65553;BME280;52465;51.560;14.368;2023-02-19T14:35:25;100666.38;;;9.74;67.27
65553;BME280;52465;51.560;14.368;2023-02-19T14:37:54;100671.19;;;9.78;67.56
65553;BME280;52465;51.560;14.368;2023-02-19T14:40:25;100665.16;;;9.78;67.43
65553;BME280;52465;51.560;14.368;2023-02-19T14:43:13;100671.47;;;9.75;67.65
65553;BME280;52465;51.560;14.368;2023-02-19T14:45:50;100663.22;;;9.70;67.80
65553;BME280;52465;51.560;14.368;2023-02-19T14:48:30;100683.59;;;9.76;67.80